createdAt,value
2022-08-04T00:04:18.175Z,2.60
2022-08-04T00:06:54.134Z,3.10
2022-08-04T00:09:41.632Z,2.70
2022-08-04T00:12:14.213Z,2.80
2022-08-04T00:14:49.347Z,3.37
2022-08-04T00:17:22.386Z,3.50
2022-08-04T00:19:55.349Z,3.13
2022-08-04T00:22:28.049Z,3.30
2022-08-04T00:24:57.309Z,2.83
2022-08-04T00:27:25.630Z,2.87
2022-08-04T00:29:54.262Z,2.93
2022-08-04T00:32:34.106Z,3.50
2022-08-04T00:35:10.114Z,3.17
2022-08-04T00:37:39.581Z,3.20
2022-08-04T00:40:20.141Z,3.63
2022-08-04T00:42:59.369Z,3.07
2022-08-04T00:46:16.197Z,3.10
2022-08-04T00:49:34.716Z,2.73
2022-08-04T00:52:33.087Z,3.10
2022-08-04T00:55:24.231Z,3.13
2022-08-04T00:58:11.679Z,3.17
2022-08-04T01:00:49.317Z,2.57
2022-08-04T01:03:25.414Z,2.93
2022-08-04T01:06:07.576Z,3.03
2022-08-04T01:08:53.893Z,3.53
2022-08-04T01:11:57.645Z,3.00
2022-08-04T01:14:37.273Z,2.40
2022-08-04T01:17:14.124Z,2.90
2022-08-04T01:20:16.680Z,3.23
2022-08-04T01:23:18.738Z,2.37
2022-08-04T01:26:43.168Z,2.90
2022-08-04T01:29:09.721Z,3.17
2022-08-04T01:31:57.522Z,3.40
2022-08-04T01:34:29.992Z,3.30
2022-08-04T01:37:01.240Z,2.63
2022-08-04T01:39:42.045Z,3.10
2022-08-04T01:42:31.677Z,2.83
2022-08-04T01:45:02.862Z,3.10
2022-08-04T01:47:32.058Z,2.97
2022-08-04T01:50:08.415Z,2.63
2022-08-04T01:52:37.560Z,3.27
2022-08-04T01:55:09.411Z,2.63
2022-08-04T01:57:39.520Z,3.70
2022-08-04T02:00:11.190Z,2.80
2022-08-04T02:02:39.345Z,3.43
2022-08-04T02:05:07.739Z,3.20
2022-08-04T02:08:01.702Z,3.30
2022-08-04T02:10:33.971Z,3.63
2022-08-04T02:13:13.215Z,2.63
2022-08-04T02:15:57.963Z,3.33
2022-08-04T02:18:31.879Z,3.00
2022-08-04T02:21:02.493Z,3.17
2022-08-04T02:23:35.947Z,2.80
2022-08-04T02:26:05.569Z,3.40
2022-08-04T02:28:41.296Z,3.00
2022-08-04T02:31:23.767Z,2.97
2022-08-04T02:34:03.157Z,3.20
2022-08-04T02:36:39.734Z,2.87
2022-08-04T02:39:09.266Z,3.00
2022-08-04T02:41:38.025Z,3.57
2022-08-04T02:44:08.576Z,3.07
2022-08-04T02:46:40.607Z,3.70
2022-08-04T02:49:10.526Z,2.90
2022-08-04T02:51:41.775Z,3.10
2022-08-04T02:54:10.491Z,2.97
2022-08-04T02:56:40.991Z,3.90
2022-08-04T02:59:12.418Z,2.90
2022-08-04T03:01:57.150Z,2.90
2022-08-04T03:04:47.505Z,2.83
2022-08-04T03:07:47.878Z,3.20
2022-08-04T03:10:54.565Z,2.50
2022-08-04T03:13:49.979Z,3.20
2022-08-04T03:17:05.908Z,2.60
2022-08-04T03:20:09.263Z,2.97
2022-08-04T03:23:13.536Z,2.90
2022-08-04T03:26:09.980Z,2.83
2022-08-04T03:29:12.263Z,3.30
2022-08-04T03:32:26.343Z,2.60
2022-08-04T03:35:10.458Z,2.90
2022-08-04T03:38:14.297Z,2.90
2022-08-04T03:41:02.709Z,3.17
2022-08-04T03:44:02.019Z,3.47
2022-08-04T03:46:54.444Z,3.47
2022-08-04T03:50:04.733Z,2.17
2022-08-04T03:53:12.009Z,3.17
2022-08-04T03:56:00.410Z,3.50
2022-08-04T03:58:46.892Z,3.00
2022-08-04T04:02:01.558Z,3.03
2022-08-04T04:04:55.175Z,2.53
2022-08-04T04:08:19.155Z,3.07
2022-08-04T04:11:56.360Z,2.73
2022-08-04T04:14:46.778Z,2.70
2022-08-04T04:17:40.343Z,2.73
2022-08-04T04:20:53.272Z,2.60
2022-08-04T04:23:32.961Z,3.13
2022-08-04T04:26:08.924Z,2.40
2022-08-04T04:28:53.759Z,3.20
2022-08-04T04:31:45.852Z,3.00
2022-08-04T04:34:27.727Z,2.60
2022-08-04T04:37:11.157Z,3.00
2022-08-04T04:39:51.528Z,3.27
2022-08-04T04:42:51.076Z,2.60
2022-08-04T04:45:25.805Z,2.57
2022-08-04T04:48:09.015Z,3.13
2022-08-04T04:50:51.213Z,3.40
2022-08-04T04:53:28.701Z,3.00
2022-08-04T04:56:06.972Z,2.30
2022-08-04T04:58:38.204Z,2.77
2022-08-04T05:01:38.587Z,3.00
2022-08-04T05:04:24.002Z,3.13
2022-08-04T05:07:27.008Z,2.93
2022-08-04T05:10:10.065Z,2.67
2022-08-04T05:14:34.685Z,3.00
2022-08-04T05:15:54.901Z,2.90
2022-08-04T05:18:28.482Z,2.83
2022-08-04T05:21:07.283Z,3.20
2022-08-04T05:23:40.579Z,3.30
2022-08-04T05:26:13.415Z,2.80
2022-08-04T05:28:43.975Z,3.13
2022-08-04T05:31:13.811Z,2.87
2022-08-04T05:33:50.224Z,3.50
2022-08-04T05:36:40.208Z,3.20
2022-08-04T05:39:13.538Z,3.10
2022-08-04T05:41:45.378Z,3.17
2022-08-04T05:44:17.998Z,2.53
2022-08-04T05:46:54.037Z,2.60
2022-08-04T05:49:26.413Z,2.77
2022-08-04T05:51:59.734Z,3.27
2022-08-04T05:54:29.651Z,2.67
2022-08-04T05:56:59.556Z,2.57
2022-08-04T05:59:28.915Z,2.70
2022-08-04T06:01:59.141Z,2.70
2022-08-04T06:04:36.642Z,2.93
2022-08-04T06:07:06.491Z,3.10
2022-08-04T06:09:34.630Z,3.13
2022-08-04T06:12:07.895Z,3.00
2022-08-04T06:14:41.923Z,2.83
2022-08-04T06:18:34.030Z,3.40
2022-08-04T06:20:19.409Z,2.93
2022-08-04T06:22:55.671Z,3.40
2022-08-04T06:25:29.929Z,3.30
2022-08-04T06:28:03.996Z,2.80
2022-08-04T06:30:33.088Z,5.83
2022-08-04T06:33:05.152Z,2.83
2022-08-04T06:35:39.418Z,3.07
2022-08-04T06:38:09.996Z,2.60
2022-08-04T06:40:40.688Z,3.03
2022-08-04T06:43:09.196Z,2.50
2022-08-04T06:45:41.443Z,2.63
2022-08-04T06:48:13.581Z,2.50
2022-08-04T06:51:30.649Z,2.50
2022-08-04T06:53:32.705Z,2.60
2022-08-04T06:56:02.370Z,2.30
2022-08-04T06:58:34.459Z,2.30
2022-08-04T07:01:04.277Z,2.10
2022-08-04T07:03:42.144Z,2.93
2022-08-04T07:06:14.674Z,2.50
2022-08-04T07:08:44.890Z,2.60
2022-08-04T07:11:14.257Z,2.00
2022-08-04T07:13:45.166Z,2.40
2022-08-04T07:16:15.835Z,2.13
2022-08-04T07:18:45.693Z,2.57
2022-08-04T07:21:23.345Z,2.17
2022-08-04T07:23:52.826Z,2.23
2022-08-04T07:26:21.067Z,2.30
2022-08-04T07:28:49.185Z,3.03
2022-08-04T07:31:33.805Z,2.33
2022-08-04T07:34:16.885Z,2.00
2022-08-04T07:36:52.753Z,2.20
2022-08-04T07:39:28.537Z,3.13
2022-08-04T07:42:04.521Z,3.07
2022-08-04T07:44:39.461Z,2.13
2022-08-04T07:47:08.768Z,2.03
2022-08-04T07:49:55.530Z,2.17
2022-08-04T07:52:26.317Z,1.97
2022-08-04T07:54:56.377Z,2.10
2022-08-04T07:57:39.747Z,2.00
2022-08-04T08:00:10.725Z,1.60
2022-08-04T08:02:39.946Z,2.10
2022-08-04T08:05:11.318Z,2.23
2022-08-04T08:07:50.208Z,2.10
2022-08-04T08:10:21.732Z,1.80
2022-08-04T08:12:52.312Z,1.80
2022-08-04T08:15:22.923Z,2.47
2022-08-04T08:17:59.063Z,1.87
2022-08-04T08:20:30.974Z,2.10
2022-08-04T08:23:00.137Z,2.10
2022-08-04T08:25:31.785Z,3.03
2022-08-04T08:28:00.264Z,6.37
2022-08-04T08:30:31.701Z,1.50
2022-08-04T08:33:03.927Z,1.90
2022-08-04T08:35:53.298Z,1.80
2022-08-04T08:38:46.279Z,1.97
2022-08-04T08:41:54.107Z,1.57
2022-08-04T08:45:18.077Z,1.43
2022-08-04T08:48:06.988Z,2.57
2022-08-04T08:51:04.260Z,1.97
2022-08-04T08:54:00.712Z,1.93
2022-08-04T08:56:38.194Z,1.60
2022-08-04T08:59:33.910Z,1.80
2022-08-04T09:02:33.990Z,1.80
2022-08-04T09:05:20.049Z,1.80
2022-08-04T09:07:59.109Z,2.00
2022-08-04T09:10:35.196Z,1.80
2022-08-04T09:13:10.685Z,1.97
2022-08-04T09:15:48.135Z,1.63
2022-08-04T09:18:38.920Z,1.80
2022-08-04T09:21:15.235Z,1.80
2022-08-04T09:23:53.106Z,1.90
2022-08-04T09:26:31.257Z,1.97
2022-08-04T09:29:09.741Z,1.50
2022-08-04T09:31:51.409Z,3.57
2022-08-04T09:34:45.074Z,1.87
2022-08-04T09:37:24.957Z,1.60
2022-08-04T09:40:04.432Z,1.70
2022-08-04T09:42:39.625Z,1.73
2022-08-04T09:45:26.013Z,1.50
2022-08-04T09:47:58.747Z,1.87
2022-08-04T09:50:35.563Z,1.77
2022-08-04T09:53:32.001Z,1.60
2022-08-04T09:56:10.006Z,1.87
2022-08-04T09:58:55.198Z,1.50
2022-08-04T10:01:28.139Z,1.43
2022-08-04T10:04:00.326Z,1.47
2022-08-04T10:06:44.289Z,1.80
2022-08-04T10:09:32.537Z,1.67
2022-08-04T10:12:16.784Z,1.30
2022-08-04T10:14:54.166Z,1.50
2022-08-04T10:17:51.927Z,1.50
2022-08-04T10:20:45.363Z,1.57
2022-08-04T10:23:32.937Z,1.30
2022-08-04T10:26:30.326Z,1.53
2022-08-04T10:29:03.791Z,1.40
2022-08-04T10:31:36.635Z,1.40
2022-08-04T10:34:13.319Z,1.30
2022-08-04T10:36:50.812Z,1.60
2022-08-04T10:39:42.697Z,1.40
2022-08-04T10:42:42.669Z,1.50
2022-08-04T10:45:19.255Z,1.40
2022-08-04T10:47:58.715Z,1.60
2022-08-04T10:50:31.660Z,1.20
2022-08-04T10:53:08.683Z,1.60
2022-08-04T10:56:06.786Z,1.63
2022-08-04T10:58:48.984Z,1.50
2022-08-04T11:02:00.962Z,1.40
2022-08-04T11:04:27.573Z,1.27
2022-08-04T11:07:00.235Z,1.70
2022-08-04T11:09:30.148Z,1.47
2022-08-04T11:12:12.228Z,1.30
2022-08-04T11:14:47.933Z,1.40
2022-08-04T11:17:23.075Z,1.40
2022-08-04T11:20:31.753Z,1.50
2022-08-04T11:22:57.920Z,1.53
2022-08-04T11:25:31.297Z,1.37
2022-08-04T11:28:05.798Z,1.40
2022-08-04T11:30:44.628Z,1.50
2022-08-04T11:33:22.140Z,1.20
2022-08-04T11:35:59.068Z,1.20
2022-08-04T11:38:38.127Z,1.47
2022-08-04T11:41:12.058Z,1.27
2022-08-04T11:44:00.911Z,1.90
2022-08-04T11:46:37.038Z,1.30
2022-08-04T11:49:09.624Z,1.27
2022-08-04T11:51:38.372Z,1.17
2022-08-04T11:54:07.984Z,1.80
2022-08-04T11:56:38.026Z,1.40
2022-08-04T11:59:09.816Z,1.20
2022-08-04T12:01:54.663Z,1.40
2022-08-04T12:04:48.545Z,1.40
2022-08-04T12:07:30.508Z,1.53
2022-08-04T12:10:13.190Z,1.37
2022-08-04T12:12:48.367Z,1.33
2022-08-04T12:15:22.252Z,1.40
2022-08-04T12:17:59.887Z,1.37
2022-08-04T12:20:41.008Z,2.57
2022-08-04T12:23:23.027Z,1.73
2022-08-04T12:25:57.298Z,2.40
2022-08-04T12:28:52.462Z,1.47
2022-08-04T12:31:25.339Z,1.20
2022-08-04T12:34:05.785Z,1.93
2022-08-04T12:36:41.312Z,1.60
2022-08-04T12:39:14.195Z,1.57
2022-08-04T12:41:49.842Z,2.00
2022-08-04T12:44:36.710Z,1.60
2022-08-04T12:47:28.387Z,1.57
2022-08-04T12:50:02.878Z,2.00
2022-08-04T12:53:01.536Z,1.83
2022-08-04T12:55:40.371Z,1.70
2022-08-04T12:58:42.203Z,2.13
2022-08-04T13:02:09.628Z,2.10
2022-08-04T13:03:58.957Z,2.30
2022-08-04T13:06:30.395Z,2.17
2022-08-04T13:09:05.543Z,1.83
2022-08-04T13:11:40.456Z,1.80
2022-08-04T13:14:27.079Z,1.93
2022-08-04T13:17:02.320Z,1.93
2022-08-04T13:19:39.653Z,2.40
2022-08-04T13:22:12.679Z,2.55
2022-08-04T13:25:18.213Z,1.80
2022-08-04T13:27:43.011Z,2.20
2022-08-04T13:30:22.576Z,2.73
2022-08-04T13:32:56.574Z,2.43
2022-08-04T13:35:55.181Z,2.43
2022-08-04T13:38:28.965Z,2.27
2022-08-04T13:40:58.773Z,2.40
2022-08-04T13:44:16.104Z,2.43
2022-08-04T13:46:27.032Z,2.40
2022-08-04T13:49:26.074Z,2.83
2022-08-04T13:51:57.905Z,2.43
2022-08-04T13:54:30.518Z,2.80
2022-08-04T13:57:02.259Z,2.47
2022-08-04T13:59:40.871Z,2.40
2022-08-04T14:02:26.044Z,2.60
2022-08-04T14:04:59.022Z,2.73
2022-08-04T14:07:32.349Z,2.50
2022-08-04T14:10:03.967Z,2.23
2022-08-04T14:12:45.994Z,2.10
2022-08-04T14:15:54.764Z,2.30
2022-08-04T14:18:26.653Z,2.50
2022-08-04T14:21:13.871Z,2.20
2022-08-04T14:23:51.182Z,2.50
2022-08-04T14:26:32.346Z,2.80
2022-08-04T14:29:26.789Z,2.60
2022-08-04T14:32:03.189Z,2.47
2022-08-04T14:34:41.454Z,2.97
2022-08-04T14:37:16.405Z,2.30
2022-08-04T14:40:17.655Z,2.53
2022-08-04T14:42:44.014Z,2.70
2022-08-04T14:45:12.593Z,2.40
2022-08-04T14:47:52.866Z,2.67
2022-08-04T14:50:35.469Z,2.50
2022-08-04T14:53:09.290Z,2.33
2022-08-04T14:55:38.478Z,2.77
2022-08-04T14:58:35.373Z,2.43
2022-08-04T15:00:57.470Z,2.57
2022-08-04T15:03:26.702Z,2.33
2022-08-04T15:06:02.733Z,2.50
2022-08-04T15:08:35.493Z,2.50
2022-08-04T15:11:03.758Z,2.40
2022-08-04T15:13:33.655Z,2.67
2022-08-04T15:16:07.481Z,2.90
2022-08-04T15:18:38.949Z,3.03
2022-08-04T15:21:09.522Z,2.60
2022-08-04T15:23:39.703Z,3.10
2022-08-04T15:26:11.709Z,2.70
2022-08-04T15:28:42.401Z,3.00
2022-08-04T15:32:07.773Z,2.47
2022-08-04T15:34:00.478Z,2.10
2022-08-04T15:36:43.602Z,2.45
2022-08-04T15:39:28.835Z,2.28
2022-08-04T15:42:20.520Z,2.58
2022-08-04T15:45:06.293Z,2.90
2022-08-04T15:47:34.454Z,2.80
2022-08-04T15:50:09.478Z,2.38
2022-08-04T15:53:12.467Z,2.47
2022-08-04T15:55:43.877Z,2.60
2022-08-04T15:58:13.622Z,2.78
2022-08-04T16:01:15.720Z,3.22
2022-08-04T16:03:58.337Z,2.70
2022-08-04T16:06:47.598Z,2.72
2022-08-04T16:09:45.191Z,2.72
2022-08-04T16:12:55.673Z,2.80
2022-08-04T16:15:38.662Z,2.63
2022-08-04T16:18:13.773Z,2.42
2022-08-04T16:20:56.031Z,2.92
2022-08-04T16:23:54.920Z,2.80
2022-08-04T16:26:55.089Z,2.57
2022-08-04T16:29:39.063Z,2.53
2022-08-04T16:32:18.139Z,2.93
2022-08-04T16:34:54.812Z,2.70
2022-08-04T16:37:26.576Z,3.10
2022-08-04T16:40:40.340Z,2.90
2022-08-04T16:43:13.592Z,2.33
2022-08-04T16:45:54.088Z,2.93
2022-08-04T16:48:27.259Z,2.90
2022-08-04T16:51:05.352Z,3.20
2022-08-04T16:53:53.463Z,3.00
2022-08-04T16:56:30.556Z,3.03
2022-08-04T16:59:09.633Z,3.10
2022-08-04T17:01:49.061Z,3.67
2022-08-04T17:04:17.685Z,2.72
2022-08-04T17:06:47.758Z,2.70
2022-08-04T17:09:19.253Z,2.83
2022-08-04T17:11:49.409Z,3.22
2022-08-04T17:14:25.811Z,3.00
2022-08-04T17:16:55.584Z,2.90
2022-08-04T17:19:25.703Z,2.72
2022-08-04T17:22:02.998Z,2.75
2022-08-04T17:24:35.123Z,2.72
2022-08-04T17:27:13.842Z,2.80
2022-08-04T17:29:56.603Z,3.15
2022-08-04T17:32:25.361Z,2.75
2022-08-04T17:34:55.706Z,2.70
2022-08-04T17:37:39.951Z,3.22
2022-08-04T17:40:12.302Z,2.95
2022-08-04T17:42:41.755Z,3.15
2022-08-04T17:48:03.552Z,3.10
2022-08-04T17:50:35.108Z,2.90
2022-08-04T17:53:12.225Z,3.27
2022-08-04T17:55:42.459Z,2.83
2022-08-04T17:58:21.013Z,2.93
2022-08-04T18:03:51.900Z,2.87
2022-08-04T18:06:25.634Z,2.77
2022-08-04T18:08:57.974Z,3.30
2022-08-04T18:11:41.835Z,3.27
2022-08-04T18:14:11.978Z,3.00
2022-08-04T18:16:47.989Z,3.37
2022-08-04T18:19:18.992Z,3.40
2022-08-04T18:22:00.298Z,3.00
2022-08-04T18:24:35.274Z,3.00
2022-08-04T18:27:19.782Z,3.27
2022-08-04T18:30:33.880Z,2.57
2022-08-04T18:33:24.211Z,2.50
2022-08-04T18:36:35.436Z,3.00
2022-08-04T18:38:35.411Z,2.53
2022-08-04T18:41:03.638Z,2.70
2022-08-04T18:43:40.708Z,3.73
2022-08-04T18:46:15.453Z,3.47
2022-08-04T18:48:52.593Z,3.60
2022-08-04T18:51:22.894Z,3.27
2022-08-04T18:53:59.458Z,3.50
2022-08-04T18:56:32.854Z,3.40
2022-08-04T18:59:03.141Z,2.43
2022-08-04T19:02:13.788Z,2.30
2022-08-04T19:04:33.146Z,2.20
2022-08-04T19:07:29.653Z,1.80
2022-08-04T19:09:58.044Z,1.60
2022-08-04T19:12:28.651Z,1.60
2022-08-04T19:15:10.681Z,1.30
2022-08-04T19:18:00.485Z,1.50
2022-08-04T19:20:30.852Z,1.43
2022-08-04T19:24:11.437Z,1.57
2022-08-04T19:26:03.011Z,1.50
2022-08-04T19:28:36.055Z,1.20
2022-08-04T19:31:05.794Z,1.27
2022-08-04T19:33:59.107Z,1.20
2022-08-04T19:36:28.007Z,1.20
2022-08-04T19:38:58.020Z,1.03
2022-08-04T19:41:26.956Z,1.00
2022-08-04T19:43:55.726Z,1.20
2022-08-04T19:46:24.722Z,1.83
2022-08-04T19:48:59.855Z,1.90
2022-08-04T19:51:30.471Z,1.40
2022-08-04T19:54:02.930Z,1.20
2022-08-04T19:56:40.189Z,1.10
2022-08-04T19:59:09.497Z,1.40
2022-08-04T20:01:44.155Z,0.93
2022-08-04T20:04:13.596Z,1.63
2022-08-04T20:06:43.887Z,1.00
2022-08-04T20:09:16.951Z,1.27
2022-08-04T20:11:54.572Z,1.40
2022-08-04T20:14:32.612Z,1.27
2022-08-04T20:17:10.470Z,1.23
2022-08-04T20:19:38.862Z,1.50
2022-08-04T20:22:52.724Z,1.50
2022-08-04T20:25:17.921Z,1.37
2022-08-04T20:27:51.671Z,1.47
2022-08-04T20:30:28.628Z,1.20
2022-08-04T20:33:00.933Z,1.47
2022-08-04T20:35:29.442Z,1.20
2022-08-04T20:38:01.867Z,1.70
2022-08-04T20:40:30.172Z,1.50
2022-08-04T20:42:58.886Z,1.27
2022-08-04T20:45:55.683Z,1.40
2022-08-04T20:48:15.163Z,1.70
2022-08-04T20:50:54.145Z,1.37
2022-08-04T20:53:46.833Z,1.33
2022-08-04T20:56:11.567Z,1.27
2022-08-04T20:58:48.024Z,1.13
2022-08-04T21:01:16.110Z,1.60
2022-08-04T21:04:02.028Z,1.57
2022-08-04T21:06:30.163Z,1.30
2022-08-04T21:08:59.630Z,1.90
2022-08-04T21:11:37.816Z,1.20
2022-08-04T21:14:10.503Z,1.47
2022-08-04T21:16:55.422Z,1.40
2022-08-04T21:19:24.682Z,1.27
2022-08-04T21:21:58.773Z,1.80
2022-08-04T21:24:28.418Z,1.20
2022-08-04T21:26:58.201Z,1.40
2022-08-04T21:29:34.960Z,1.13
2022-08-04T21:32:05.692Z,1.30
2022-08-04T21:34:37.810Z,1.40
2022-08-04T21:37:07.154Z,1.87
2022-08-04T21:39:50.287Z,1.30
2022-08-04T21:42:29.011Z,1.20
2022-08-04T21:44:58.709Z,1.50
2022-08-04T21:47:26.811Z,1.63
2022-08-04T21:50:14.272Z,1.40
2022-08-04T21:52:59.846Z,1.43
2022-08-04T21:56:04.648Z,1.50
2022-08-04T21:58:19.353Z,1.37
2022-08-04T22:01:00.527Z,1.73
2022-08-04T22:03:53.167Z,1.40
2022-08-04T22:06:18.156Z,1.47
2022-08-04T22:08:49.198Z,1.33
2022-08-04T22:11:43.827Z,1.20
2022-08-04T22:14:17.707Z,1.50
2022-08-04T22:16:56.719Z,1.40
2022-08-04T22:19:40.013Z,1.07
2022-08-04T22:22:24.566Z,1.40
2022-08-04T22:24:54.922Z,1.40
2022-08-04T22:27:38.099Z,1.47
2022-08-04T22:30:17.416Z,1.30
2022-08-04T22:32:46.357Z,1.70
2022-08-04T22:35:36.267Z,1.40
2022-08-04T22:38:06.567Z,1.40
2022-08-04T22:40:49.952Z,1.47
2022-08-04T22:43:32.654Z,1.30
2022-08-04T22:46:03.662Z,1.67
2022-08-04T22:48:32.733Z,1.40
2022-08-04T22:51:00.933Z,1.40
2022-08-04T22:53:30.695Z,1.33
2022-08-04T22:56:09.833Z,1.80
2022-08-04T22:58:45.444Z,1.40
2022-08-04T23:01:20.138Z,1.20
2022-08-04T23:03:55.872Z,1.43
2022-08-04T23:06:25.508Z,1.47
2022-08-04T23:08:56.366Z,1.50
2022-08-04T23:11:34.841Z,1.20
2022-08-04T23:14:16.013Z,1.50
2022-08-04T23:16:44.030Z,1.30
2022-08-04T23:19:15.303Z,1.50
2022-08-04T23:21:47.698Z,1.80
2022-08-04T23:24:29.478Z,1.50
2022-08-04T23:26:58.172Z,1.50
2022-08-04T23:29:27.794Z,1.60
2022-08-04T23:32:15.775Z,1.50
2022-08-04T23:34:48.412Z,1.40
2022-08-04T23:37:16.567Z,1.70
2022-08-04T23:40:14.461Z,1.80
2022-08-04T23:42:32.759Z,1.20
2022-08-04T23:45:06.771Z,1.37
2022-08-04T23:48:18.533Z,1.10
2022-08-04T23:50:24.075Z,1.50
2022-08-04T23:52:52.992Z,1.70
2022-08-04T23:55:21.274Z,1.77
2022-08-04T23:58:05.892Z,1.50
